createdAt,value
2018-03-25T00:00:24.252Z,49.20
2018-03-25T00:02:51.710Z,57.23
2018-03-25T00:05:19.213Z,52.77
2018-03-25T00:07:47.511Z,52.90
2018-03-25T00:10:14.980Z,64.27
2018-03-25T00:12:42.491Z,56.50
2018-03-25T00:15:10.763Z,41.70
2018-03-25T00:17:39.016Z,49.97
2018-03-25T00:20:06.477Z,55.03
2018-03-25T00:22:33.981Z,35.47
2018-03-25T00:25:01.630Z,45.93
2018-03-25T00:27:29.912Z,47.57
2018-03-25T00:29:58.161Z,45.50
2018-03-25T00:32:25.648Z,58.50
2018-03-25T00:34:53.888Z,48.30
2018-03-25T00:37:21.370Z,46.30
2018-03-25T00:39:48.842Z,51.17
2018-03-25T00:42:17.108Z,55.53
2018-03-25T00:44:45.360Z,109.37
2018-03-25T00:47:12.865Z,55.23
2018-03-25T00:49:40.368Z,73.37
2018-03-25T00:52:07.914Z,60.40
2018-03-25T00:54:35.402Z,53.60
2018-03-25T00:57:02.882Z,57.20
2018-03-25T00:59:31.134Z,57.07
2018-03-25T01:01:58.599Z,54.93
2018-03-25T01:04:26.091Z,47.50
2018-03-25T01:06:53.614Z,55.67
2018-03-25T01:09:21.139Z,56.60
2018-03-25T01:11:48.622Z,42.93
2018-03-25T01:14:16.094Z,46.53
2018-03-25T01:16:43.578Z,45.90
2018-03-25T01:19:11.831Z,65.00
2018-03-25T01:21:39.332Z,50.50
2018-03-25T01:24:06.811Z,44.87
2018-03-25T01:26:34.301Z,45.63
2018-03-25T01:29:01.786Z,56.80
2018-03-25T01:31:30.046Z,44.00
2018-03-25T01:33:57.564Z,51.23
2018-03-25T01:36:25.054Z,50.00
2018-03-25T01:38:52.540Z,55.63
2018-03-25T01:41:20.795Z,59.07
2018-03-25T01:43:48.278Z,54.40
2018-03-25T01:46:16.531Z,49.80
2018-03-25T01:48:44.027Z,48.97
2018-03-25T01:51:11.511Z,41.00
2018-03-25T01:53:39.015Z,42.20
2018-03-25T01:56:06.505Z,48.80
2018-03-25T01:58:33.993Z,45.93
2018-03-25T02:01:01.466Z,56.13
2018-03-25T02:03:28.969Z,49.77
2018-03-25T02:05:57.249Z,56.30
2018-03-25T02:08:25.511Z,52.83
2018-03-25T02:10:53.751Z,42.47
2018-03-25T02:13:21.246Z,52.97
2018-03-25T02:15:49.487Z,53.83
2018-03-25T02:18:16.990Z,62.33
2018-03-25T02:20:45.240Z,61.07
2018-03-25T02:23:12.724Z,60.00
2018-03-25T02:25:40.576Z,59.83
2018-03-25T02:28:08.080Z,51.70
2018-03-25T02:30:35.607Z,47.60
2018-03-25T02:33:03.881Z,47.23
2018-03-25T02:35:32.135Z,47.73
2018-03-25T02:37:59.615Z,46.47
2018-03-25T02:40:27.873Z,50.60
2018-03-25T02:42:55.345Z,50.13
2018-03-25T02:45:23.716Z,44.67
2018-03-25T02:47:51.184Z,48.73
2018-03-25T02:50:19.495Z,46.27
2018-03-25T02:52:46.984Z,58.97
2018-03-25T02:55:14.475Z,46.20
2018-03-25T02:57:42.722Z,43.47
2018-03-25T03:00:10.202Z,39.90
2018-03-25T03:02:37.715Z,38.53
2018-03-25T03:05:05.201Z,57.27
2018-03-25T03:07:32.683Z,38.13
2018-03-25T03:10:00.174Z,44.10
2018-03-25T03:12:27.664Z,39.43
2018-03-25T03:14:55.152Z,52.97
2018-03-25T03:17:22.679Z,42.57
2018-03-25T03:19:50.167Z,43.70
2018-03-25T03:22:18.444Z,43.07
2018-03-25T03:24:45.940Z,47.77
2018-03-25T03:27:13.423Z,37.97
2018-03-25T03:29:40.982Z,36.53
2018-03-25T03:32:08.482Z,39.00
2018-03-25T03:34:35.983Z,37.73
2018-03-25T03:37:03.562Z,33.37
2018-03-25T03:39:31.052Z,38.93
2018-03-25T03:41:58.559Z,34.47
2018-03-25T03:44:26.036Z,36.90
2018-03-25T03:46:53.530Z,43.43
2018-03-25T03:49:21.782Z,39.33
2018-03-25T03:51:49.262Z,40.07
2018-03-25T03:54:16.770Z,38.93
2018-03-25T03:56:44.250Z,37.60
2018-03-25T03:59:11.759Z,43.20
2018-03-25T04:01:39.247Z,32.57
2018-03-25T04:04:06.742Z,36.07
2018-03-25T04:06:34.218Z,32.57
2018-03-25T04:09:01.724Z,33.83
2018-03-25T04:11:29.966Z,47.17
2018-03-25T04:13:57.455Z,45.17
2018-03-25T04:16:24.931Z,36.77
2018-03-25T04:18:52.422Z,41.10
2018-03-25T04:21:19.899Z,44.00
2018-03-25T04:23:47.408Z,37.27
2018-03-25T04:26:14.905Z,40.17
2018-03-25T04:28:42.444Z,38.57
2018-03-25T04:31:09.926Z,32.47
2018-03-25T04:33:37.422Z,45.07
2018-03-25T04:36:05.672Z,34.23
2018-03-25T04:38:33.162Z,34.57
2018-03-25T04:41:00.677Z,39.47
2018-03-25T04:43:28.168Z,35.10
2018-03-25T04:45:56.438Z,39.90
2018-03-25T04:48:24.711Z,38.23
2018-03-25T04:50:52.962Z,32.33
2018-03-25T04:53:20.443Z,43.47
2018-03-25T04:55:47.930Z,46.20
2018-03-25T04:58:15.407Z,63.77
2018-03-25T05:00:42.884Z,52.03
2018-03-25T05:03:10.359Z,45.70
2018-03-25T05:05:37.883Z,42.03
2018-03-25T05:08:05.427Z,36.17
2018-03-25T05:10:32.876Z,41.20
2018-03-25T05:13:01.156Z,49.63
2018-03-25T05:15:29.420Z,45.70
2018-03-25T05:17:57.667Z,47.00
2018-03-25T05:20:25.143Z,39.37
2018-03-25T05:22:52.628Z,34.33
2018-03-25T05:25:20.197Z,45.60
2018-03-25T05:27:47.691Z,37.57
2018-03-25T05:30:15.215Z,40.20
2018-03-25T05:32:42.714Z,46.77
2018-03-25T05:35:10.230Z,43.93
2018-03-25T05:37:37.719Z,41.27
2018-03-25T05:40:05.212Z,49.73
2018-03-25T05:42:32.721Z,55.30
2018-03-25T05:45:00.250Z,61.10
2018-03-25T05:47:28.490Z,42.93
2018-03-25T05:49:56.043Z,44.70
2018-03-25T05:52:23.528Z,35.63
2018-03-25T05:54:51.075Z,39.30
2018-03-25T05:57:18.594Z,35.07
2018-03-25T05:59:46.133Z,30.93
2018-03-25T06:02:13.611Z,32.20
2018-03-25T06:04:41.227Z,35.13
2018-03-25T06:07:08.774Z,33.87
2018-03-25T06:09:36.321Z,36.47
2018-03-25T06:12:03.795Z,30.73
2018-03-25T06:14:31.299Z,36.83
2018-03-25T06:16:58.803Z,27.50
2018-03-25T06:19:26.323Z,27.57
2018-03-25T06:21:53.981Z,42.60
2018-03-25T06:24:23.302Z,26.67
2018-03-25T06:26:50.924Z,30.73
2018-03-25T06:29:19.186Z,24.90
2018-03-25T06:31:46.667Z,27.17
2018-03-25T06:34:14.899Z,28.37
2018-03-25T06:36:42.373Z,27.80
2018-03-25T06:39:09.847Z,24.70
2018-03-25T06:41:38.169Z,31.27
2018-03-25T06:44:05.647Z,33.57
2018-03-25T06:46:33.292Z,32.17
2018-03-25T06:49:00.786Z,27.93
2018-03-25T06:51:28.331Z,33.27
2018-03-25T06:53:55.827Z,23.43
2018-03-25T06:56:24.136Z,28.07
2018-03-25T06:58:51.606Z,26.20
2018-03-25T07:01:19.094Z,28.17
2018-03-25T07:03:46.574Z,22.03
2018-03-25T07:06:14.823Z,24.00
2018-03-25T07:08:42.301Z,24.60
2018-03-25T07:11:09.792Z,22.10
2018-03-25T07:13:37.285Z,25.97
2018-03-25T07:16:04.773Z,26.27
2018-03-25T07:18:32.271Z,25.70
2018-03-25T07:20:59.761Z,23.77
2018-03-25T07:23:27.272Z,31.03
2018-03-25T07:25:55.652Z,24.60
2018-03-25T07:28:23.158Z,26.27
2018-03-25T07:30:50.634Z,26.20
2018-03-25T07:33:18.906Z,25.03
2018-03-25T07:35:46.375Z,26.77
2018-03-25T07:38:13.862Z,29.30
2018-03-25T07:40:42.122Z,31.00
2018-03-25T07:43:09.612Z,34.63
2018-03-25T07:45:37.104Z,37.70
2018-03-25T07:48:04.598Z,35.33
2018-03-25T07:50:32.863Z,39.13
2018-03-25T07:53:00.337Z,35.43
2018-03-25T07:55:27.884Z,29.70
2018-03-25T07:57:55.443Z,28.60
2018-03-25T08:00:22.932Z,22.90
2018-03-25T08:02:51.255Z,24.47
2018-03-25T08:05:19.043Z,26.20
2018-03-25T08:07:46.561Z,22.17
2018-03-25T08:10:14.273Z,28.00
2018-03-25T08:12:41.800Z,28.30
2018-03-25T08:15:09.449Z,24.03
2018-03-25T08:17:36.931Z,39.63
2018-03-25T08:20:04.498Z,24.60
2018-03-25T08:22:31.986Z,22.03
2018-03-25T08:25:00.478Z,29.13
2018-03-25T08:27:28.806Z,22.07
2018-03-25T08:29:56.281Z,21.47
2018-03-25T08:32:23.760Z,26.63
2018-03-25T08:34:51.303Z,23.20
2018-03-25T08:37:18.809Z,23.97
2018-03-25T08:39:46.314Z,23.23
2018-03-25T08:42:13.823Z,24.23
2018-03-25T08:44:41.378Z,38.80
2018-03-25T08:47:08.878Z,52.97
2018-03-25T08:49:36.456Z,51.10
2018-03-25T08:52:03.942Z,46.90
2018-03-25T08:54:31.424Z,34.50
2018-03-25T08:56:58.912Z,24.43
2018-03-25T08:59:26.416Z,25.23
2018-03-25T09:01:54.670Z,23.40
2018-03-25T09:04:22.137Z,29.95
2018-03-25T09:06:49.740Z,20.40
2018-03-25T09:09:17.278Z,26.13
2018-03-25T09:11:45.567Z,28.67
2018-03-25T09:14:13.103Z,29.00
2018-03-25T09:16:41.279Z,28.27
2018-03-25T09:19:08.807Z,26.58
2018-03-25T09:21:36.279Z,25.95
2018-03-25T09:24:03.751Z,27.20
2018-03-25T09:26:31.245Z,22.70
2018-03-25T09:28:58.738Z,27.67
2018-03-25T09:31:26.282Z,30.73
2018-03-25T09:33:53.786Z,24.55
2018-03-25T09:36:21.282Z,26.45
2018-03-25T09:38:49.233Z,27.13
2018-03-25T09:41:17.595Z,25.48
2018-03-25T09:43:45.141Z,25.73
2018-03-25T09:46:12.629Z,29.27
2018-03-25T09:48:42.113Z,27.85
2018-03-25T09:51:09.779Z,26.52
2018-03-25T09:53:37.271Z,24.02
2018-03-25T09:56:04.771Z,27.90
2018-03-25T09:58:32.289Z,28.05
2018-03-25T10:01:05.544Z,25.20
2018-03-25T10:03:33.023Z,23.73
2018-03-25T10:06:01.301Z,25.98
2018-03-25T10:08:29.548Z,24.30
2018-03-25T10:10:57.027Z,22.48
2018-03-25T10:13:25.308Z,23.92
2018-03-25T10:15:53.575Z,25.58
2018-03-25T10:18:21.047Z,27.60
2018-03-25T10:20:49.350Z,27.42
2018-03-25T10:23:16.824Z,28.70
2018-03-25T10:25:45.158Z,29.25
2018-03-25T10:28:13.397Z,30.90
2018-03-25T10:30:41.665Z,28.40
2018-03-25T10:33:09.134Z,33.03
2018-03-25T10:35:36.683Z,30.55
2018-03-25T10:38:04.179Z,29.48
2018-03-25T10:40:31.667Z,29.40
2018-03-25T10:43:00.023Z,27.58
2018-03-25T10:45:27.502Z,29.98
2018-03-25T10:47:55.785Z,29.10
2018-03-25T10:50:23.319Z,27.52
2018-03-25T10:52:50.827Z,28.58
2018-03-25T10:55:18.320Z,34.42
2018-03-25T10:57:45.790Z,33.83
2018-03-25T11:00:13.400Z,35.38
2018-03-25T11:02:40.875Z,33.10
2018-03-25T11:05:08.360Z,35.55
2018-03-25T11:07:35.852Z,35.27
2018-03-25T11:10:04.107Z,32.00
2018-03-25T11:12:31.602Z,33.60
2018-03-25T11:14:59.083Z,36.67
2018-03-25T11:17:26.581Z,31.50
2018-03-25T11:19:54.058Z,33.43
2018-03-25T11:22:21.572Z,36.90
2018-03-25T11:24:49.059Z,38.13
2018-03-25T11:27:16.566Z,39.43
2018-03-25T11:29:44.049Z,40.83
2018-03-25T11:32:11.554Z,40.73
2018-03-25T11:34:39.812Z,40.00
2018-03-25T11:37:07.311Z,36.30
2018-03-25T11:39:34.806Z,33.90
2018-03-25T11:42:02.310Z,33.80
2018-03-25T11:44:30.563Z,41.97
2018-03-25T11:46:58.059Z,41.70
2018-03-25T11:49:25.587Z,40.80
2018-03-25T11:51:53.088Z,44.50
2018-03-25T11:54:20.751Z,43.07
2018-03-25T11:56:48.334Z,48.17
2018-03-25T11:59:15.861Z,40.17
2018-03-25T12:01:43.349Z,39.07
2018-03-25T12:04:10.835Z,42.83
2018-03-25T12:06:38.315Z,41.53
2018-03-25T12:09:06.565Z,38.83
2018-03-25T12:11:34.059Z,44.90
2018-03-25T12:14:02.317Z,42.63
2018-03-25T12:16:29.810Z,39.83
2018-03-25T12:18:57.292Z,42.40
2018-03-25T12:21:24.835Z,34.13
2018-03-25T12:23:52.326Z,41.73
2018-03-25T12:26:20.172Z,39.67
2018-03-25T12:28:48.874Z,36.17
2018-03-25T12:31:16.683Z,42.10
2018-03-25T12:33:44.233Z,44.03
2018-03-25T12:36:11.697Z,42.20
2018-03-25T12:38:40.040Z,46.00
2018-03-25T12:41:07.499Z,41.50
2018-03-25T12:43:34.978Z,42.90
2018-03-25T12:46:02.476Z,47.77
2018-03-25T12:48:29.970Z,48.40
2018-03-25T12:50:57.447Z,51.00
2018-03-25T12:53:24.941Z,39.50
2018-03-25T12:55:53.234Z,41.33
2018-03-25T12:58:20.699Z,47.40
2018-03-25T13:00:48.239Z,49.57
2018-03-25T13:03:16.519Z,44.87
2018-03-25T13:05:44.800Z,44.90
2018-03-25T13:08:13.041Z,43.17
2018-03-25T13:10:40.535Z,40.87
2018-03-25T13:13:08.093Z,43.43
2018-03-25T13:15:36.368Z,44.80
2018-03-25T13:18:04.608Z,41.03
2018-03-25T13:20:32.086Z,39.60
2018-03-25T13:22:59.611Z,40.47
2018-03-25T13:25:27.124Z,44.50
2018-03-25T13:27:55.433Z,38.73
2018-03-25T13:30:22.895Z,40.00
2018-03-25T13:32:50.374Z,47.03
2018-03-25T13:35:17.849Z,43.50
2018-03-25T13:37:45.360Z,42.40
2018-03-25T13:40:12.907Z,33.87
2018-03-25T13:42:40.404Z,41.07
2018-03-25T13:45:07.902Z,35.63
2018-03-25T13:47:36.160Z,35.17
2018-03-25T13:50:03.631Z,39.20
2018-03-25T13:52:31.888Z,44.93
2018-03-25T13:54:59.379Z,35.63
2018-03-25T13:57:27.639Z,37.27
2018-03-25T13:59:55.104Z,42.63
2018-03-25T14:02:23.412Z,37.70
2018-03-25T14:04:50.888Z,39.60
2018-03-25T14:07:18.396Z,41.90
2018-03-25T14:09:46.668Z,35.03
2018-03-25T14:12:14.978Z,39.23
2018-03-25T14:14:42.465Z,36.70
2018-03-25T14:17:10.710Z,42.87
2018-03-25T14:19:38.248Z,43.50
2018-03-25T14:22:05.788Z,47.53
2018-03-25T14:24:33.549Z,37.50
2018-03-25T14:27:01.074Z,39.60
2018-03-25T14:29:28.555Z,46.23
2018-03-25T14:31:57.046Z,50.03
2018-03-25T14:34:25.035Z,43.67
2018-03-25T14:36:52.566Z,39.23
2018-03-25T14:39:20.101Z,42.87
2018-03-25T14:41:47.585Z,45.47
2018-03-25T14:44:15.446Z,42.40
2018-03-25T14:46:42.918Z,47.83
2018-03-25T14:49:10.460Z,41.83
2018-03-25T14:51:37.935Z,42.90
2018-03-25T14:54:05.421Z,50.73
2018-03-25T14:56:32.961Z,48.13
2018-03-25T14:59:00.570Z,48.13
2018-03-25T15:01:28.062Z,47.30
2018-03-25T15:03:55.568Z,43.43
2018-03-25T15:06:23.847Z,42.40
2018-03-25T15:08:52.090Z,47.50
2018-03-25T15:11:19.594Z,46.27
2018-03-25T15:13:47.096Z,48.57
2018-03-25T15:16:14.671Z,45.23
2018-03-25T15:18:42.143Z,44.67
2018-03-25T15:21:09.650Z,46.93
2018-03-25T15:23:37.125Z,49.17
2018-03-25T15:26:04.607Z,45.67
2018-03-25T15:28:32.073Z,48.00
2018-03-25T15:30:59.579Z,53.10
2018-03-25T15:33:27.064Z,52.23
2018-03-25T15:35:54.536Z,51.80
2018-03-25T15:38:22.031Z,46.67
2018-03-25T15:40:50.326Z,52.60
2018-03-25T15:43:17.867Z,52.77
2018-03-25T15:45:46.105Z,46.20
2018-03-25T15:48:13.629Z,48.53
2018-03-25T15:50:41.138Z,55.53
2018-03-25T15:53:08.639Z,52.53
2018-03-25T15:55:36.151Z,56.23
2018-03-25T15:58:03.632Z,50.57
2018-03-25T16:00:31.124Z,50.33
2018-03-25T16:02:58.621Z,51.93
2018-03-25T16:05:26.125Z,48.43
2018-03-25T16:07:53.610Z,54.57
2018-03-25T16:10:21.148Z,52.77
2018-03-25T16:12:48.625Z,50.53
2018-03-25T16:15:16.122Z,52.40
2018-03-25T16:17:43.675Z,41.47
2018-03-25T16:20:11.170Z,51.07
2018-03-25T16:22:39.447Z,51.47
2018-03-25T16:25:06.976Z,48.07
2018-03-25T16:27:34.489Z,50.90
2018-03-25T16:30:02.232Z,47.33
2018-03-25T16:32:29.751Z,56.97
2018-03-25T16:34:57.239Z,67.60
2018-03-25T16:37:24.723Z,67.23
2018-03-25T16:39:52.219Z,77.63
2018-03-25T16:42:19.722Z,64.60
2018-03-25T16:44:48.124Z,52.60
2018-03-25T16:47:16.703Z,52.90
2018-03-25T16:49:44.205Z,69.17
2018-03-25T16:52:11.821Z,52.53
2018-03-25T16:54:39.299Z,47.07
2018-03-25T16:57:07.795Z,48.63
2018-03-25T16:59:35.647Z,52.07
2018-03-25T17:02:03.145Z,51.60
2018-03-25T17:04:31.525Z,46.60
2018-03-25T17:06:59.121Z,45.37
2018-03-25T17:09:27.495Z,49.10
2018-03-25T17:11:54.994Z,57.63
2018-03-25T17:14:22.498Z,42.20
2018-03-25T17:16:49.992Z,58.73
2018-03-25T17:19:18.432Z,52.03
2018-03-25T17:21:45.930Z,49.53
2018-03-25T17:24:14.236Z,47.20
2018-03-25T17:26:41.745Z,55.40
2018-03-25T17:29:10.000Z,57.87
2018-03-25T17:31:37.554Z,53.93
2018-03-25T17:34:05.035Z,57.23
2018-03-25T17:36:32.616Z,57.57
2018-03-25T17:39:00.916Z,62.50
2018-03-25T17:41:28.403Z,57.87
2018-03-25T17:43:56.012Z,62.37
2018-03-25T17:46:24.355Z,59.10
2018-03-25T17:48:51.915Z,59.10
2018-03-25T17:51:19.398Z,57.93
2018-03-25T17:53:46.899Z,60.33
2018-03-25T17:56:14.408Z,69.00
2018-03-25T17:58:41.938Z,58.50
2018-03-25T18:01:09.502Z,65.57
2018-03-25T18:03:36.990Z,63.80
2018-03-25T18:06:04.492Z,61.87
2018-03-25T18:08:31.984Z,58.80
2018-03-25T18:10:59.479Z,56.90
2018-03-25T18:13:27.753Z,63.10
2018-03-25T18:15:55.298Z,61.67
2018-03-25T18:18:22.848Z,61.07
2018-03-25T18:20:56.307Z,69.37
2018-03-25T18:23:18.647Z,63.17
2018-03-25T18:25:46.210Z,62.40
2018-03-25T18:28:13.709Z,61.90
2018-03-25T18:30:41.199Z,61.33
2018-03-25T18:33:09.450Z,55.40
2018-03-25T18:35:36.988Z,55.77
2018-03-25T18:38:04.493Z,62.23
2018-03-25T18:40:32.752Z,53.27
2018-03-25T18:43:00.285Z,58.23
2018-03-25T18:45:27.903Z,55.27
2018-03-25T18:47:56.275Z,60.40
2018-03-25T18:50:23.865Z,52.70
2018-03-25T18:52:51.451Z,56.77
2018-03-25T18:55:19.109Z,61.70
2018-03-25T18:57:47.392Z,55.00
2018-03-25T19:00:14.922Z,56.60
2018-03-25T19:02:42.592Z,54.80
2018-03-25T19:05:10.075Z,61.90
2018-03-25T19:07:37.606Z,62.03
2018-03-25T19:10:05.096Z,59.73
2018-03-25T19:12:32.622Z,57.63
2018-03-25T19:15:00.162Z,54.77
2018-03-25T19:17:28.407Z,54.40
2018-03-25T19:19:56.003Z,56.87
2018-03-25T19:22:23.478Z,60.00
2018-03-25T19:24:51.188Z,59.27
2018-03-25T19:27:18.783Z,52.20
2018-03-25T19:29:47.056Z,62.30
2018-03-25T19:32:15.584Z,53.17
2018-03-25T19:34:43.052Z,61.37
2018-03-25T19:37:10.553Z,59.53
2018-03-25T19:39:38.910Z,61.17
2018-03-25T19:42:06.446Z,57.93
2018-03-25T19:44:34.886Z,51.20
2018-03-25T19:47:03.206Z,57.43
2018-03-25T19:49:30.924Z,55.67
2018-03-25T19:51:58.579Z,52.17
2018-03-25T19:54:26.908Z,56.70
2018-03-25T19:56:54.426Z,53.13
2018-03-25T19:59:22.028Z,53.17
2018-03-25T20:01:49.572Z,51.33
2018-03-25T20:04:17.049Z,50.10
2018-03-25T20:06:44.996Z,50.97
2018-03-25T20:09:12.521Z,53.70
2018-03-25T20:11:40.790Z,51.03
2018-03-25T20:14:08.280Z,50.73
2018-03-25T20:16:36.540Z,57.67
2018-03-25T20:19:04.999Z,50.50
2018-03-25T20:21:32.463Z,54.40
2018-03-25T20:24:00.079Z,53.00
2018-03-25T20:26:27.729Z,59.00
2018-03-25T20:28:55.219Z,47.47
2018-03-25T20:31:22.740Z,51.80
2018-03-25T20:33:50.228Z,46.10
2018-03-25T20:36:17.742Z,46.07
2018-03-25T20:38:46.031Z,48.70
2018-03-25T20:41:14.362Z,50.30
2018-03-25T20:43:41.918Z,55.10
2018-03-25T20:46:09.392Z,52.00
2018-03-25T20:48:36.904Z,57.53
2018-03-25T20:51:04.466Z,50.13
2018-03-25T20:53:31.938Z,44.33
2018-03-25T20:55:59.534Z,45.27
2018-03-25T20:58:27.873Z,48.53
2018-03-25T21:00:55.360Z,50.30
2018-03-25T21:03:22.991Z,47.03
2018-03-25T21:05:50.515Z,44.60
2018-03-25T21:08:18.751Z,50.17
2018-03-25T21:10:46.254Z,51.60
2018-03-25T21:13:14.496Z,47.50
2018-03-25T21:15:41.980Z,42.83
2018-03-25T21:18:10.226Z,48.27
2018-03-25T21:20:37.694Z,49.27
2018-03-25T21:23:05.220Z,45.00
2018-03-25T21:25:32.774Z,51.70
2018-03-25T21:28:04.095Z,45.40
2018-03-25T21:30:31.639Z,55.57
2018-03-25T21:32:59.196Z,56.00
2018-03-25T21:35:26.830Z,52.73
2018-03-25T21:37:54.370Z,44.93
2018-03-25T21:40:21.837Z,51.63
2018-03-25T21:42:49.326Z,63.40
2018-03-25T21:45:16.922Z,52.63
2018-03-25T21:47:45.250Z,57.13
2018-03-25T21:50:12.829Z,62.03
2018-03-25T21:52:40.363Z,53.47
2018-03-25T21:55:07.900Z,59.83
2018-03-25T21:57:35.388Z,55.20
2018-03-25T22:00:02.896Z,56.93
2018-03-25T22:02:30.383Z,57.23
2018-03-25T22:04:57.909Z,62.03
2018-03-25T22:07:26.174Z,59.87
2018-03-25T22:09:53.672Z,57.50
2018-03-25T22:12:21.143Z,64.40
2018-03-25T22:14:48.608Z,66.93
2018-03-25T22:17:16.073Z,55.93
2018-03-25T22:19:43.556Z,63.00
2018-03-25T22:22:11.195Z,62.20
2018-03-25T22:24:38.666Z,65.70
2018-03-25T22:27:06.134Z,67.20
2018-03-25T22:29:33.716Z,72.63
2018-03-25T22:32:01.178Z,59.87
2018-03-25T22:34:28.640Z,62.80
2018-03-25T22:36:56.145Z,60.97
2018-03-25T22:39:23.659Z,70.17
2018-03-25T22:41:51.135Z,69.77
2018-03-25T22:44:18.649Z,68.50
2018-03-25T22:46:46.239Z,74.70
2018-03-25T22:49:13.716Z,72.67
2018-03-25T22:51:41.209Z,67.57
2018-03-25T22:54:08.707Z,69.97
2018-03-25T22:56:36.200Z,65.20
2018-03-25T22:59:03.682Z,69.87
2018-03-25T23:01:31.937Z,70.63
2018-03-25T23:03:59.415Z,71.27
2018-03-25T23:06:27.006Z,71.30
2018-03-25T23:08:54.483Z,76.73
2018-03-25T23:11:21.969Z,71.33
2018-03-25T23:13:49.433Z,81.43
2018-03-25T23:16:16.939Z,67.90
2018-03-25T23:18:44.447Z,69.10
2018-03-25T23:21:11.937Z,74.77
2018-03-25T23:23:39.453Z,68.53
2018-03-25T23:26:06.946Z,80.40
2018-03-25T23:28:34.435Z,75.30
2018-03-25T23:31:02.729Z,80.10
2018-03-25T23:33:30.973Z,70.07
2018-03-25T23:35:58.544Z,73.77
2018-03-25T23:38:26.818Z,69.60
2018-03-25T23:40:55.146Z,70.37
2018-03-25T23:43:23.423Z,79.33
2018-03-25T23:45:50.926Z,77.67
2018-03-25T23:48:18.427Z,72.57
2018-03-25T23:50:45.922Z,70.03
2018-03-25T23:53:13.402Z,83.03
2018-03-25T23:55:40.874Z,71.40
2018-03-25T23:58:08.434Z,70.70
